sensor_id;sensor_type;location;lat;lon;timestamp;pressure;altitude;pressure_sealevel;temperature;humidity
3132;BME280;62090;52.330;9.104;2023-05-24T00:00:16;101668.50;;;10.95;78.01
3132;BME280;62090;52.330;9.104;2023-05-24T00:02:48;101655.50;;;10.88;78.38
3132;BME280;62090;52.330;9.104;2023-05-24T00:05:18;101648.91;;;10.94;78.14
3132;BME280;62090;52.330;9.104;2023-05-24T00:07:50;101663.41;;;10.95;78.03
3132;BME280;62090;52.330;9.104;2023-05-24T00:10:20;101633.91;;;10.80;78.52
3132;BME280;62090;52.330;9.104;2023-05-24T00:12:50;101635.50;;;10.76;78.88
3132;BME280;62090;52.330;9.104;2023-05-24T00:15:20;101652.41;;;10.96;78.46
3132;BME280;62090;52.330;9.104;2023-05-24T00:17:49;101675.69;;;11.06;78.58
3132;BME280;62090;52.330;9.104;2023-05-24T00:20:19;101663.53;;;10.98;78.59
3132;BME280;62090;52.330;9.104;2023-05-24T00:22:52;101660.69;;;10.91;78.25
3132;BME280;62090;52.330;9.104;2023-05-24T00:25:22;101637.09;;;10.74;78.93
3132;BME280;62090;52.330;9.104;2023-05-24T00:27:52;101661.09;;;10.79;79.08
3132;BME280;62090;52.330;9.104;2023-05-24T00:30:24;101666.44;;;10.85;78.98
3132;BME280;62090;52.330;9.104;2023-05-24T00:32:54;101666.41;;;10.84;78.87
3132;BME280;62090;52.330;9.104;2023-05-24T00:35:24;101632.06;;;10.53;79.26
3132;BME280;62090;52.330;9.104;2023-05-24T00:37:56;101663.38;;;10.72;79.70
3132;BME280;62090;52.330;9.104;2023-05-24T00:40:26;101653.72;;;10.65;80.12
3132;BME280;62090;52.330;9.104;2023-05-24T00:42:56;101646.00;;;10.62;79.79
3132;BME280;62090;52.330;9.104;2023-05-24T00:45:26;101598.00;;;10.29;80.28
3132;BME280;62090;52.330;9.104;2023-05-24T00:47:59;101643.91;;;10.51;80.59
3132;BME280;62090;52.330;9.104;2023-05-24T00:50:29;101659.81;;;10.68;80.35
3132;BME280;62090;52.330;9.104;2023-05-24T00:53:03;101635.94;;;10.44;80.77
3132;BME280;62090;52.330;9.104;2023-05-24T00:55:33;101654.72;;;10.46;81.33
3132;BME280;62090;52.330;9.104;2023-05-24T00:58:03;101651.78;;;10.37;81.46
3132;BME280;62090;52.330;9.104;2023-05-24T01:00:33;101656.88;;;10.37;81.94
3132;BME280;62090;52.330;9.104;2023-05-24T01:03:03;101655.38;;;10.42;81.70
3132;BME280;62090;52.330;9.104;2023-05-24T01:05:35;101648.25;;;10.33;81.62
3132;BME280;62090;52.330;9.104;2023-05-24T01:08:15;101599.22;;;9.97;81.35
3132;BME280;62090;52.330;9.104;2023-05-24T01:10:53;101620.28;;;10.14;82.04
3132;BME280;62090;52.330;9.104;2023-05-24T01:13:30;101651.06;;;10.39;82.03
3132;BME280;62090;52.330;9.104;2023-05-24T01:16:10;101621.97;;;10.13;82.28
3132;BME280;62090;52.330;9.104;2023-05-24T01:18:45;101636.06;;;10.26;82.33
3132;BME280;62090;52.330;9.104;2023-05-24T01:21:29;101654.13;;;10.31;82.30
3132;BME280;62090;52.330;9.104;2023-05-24T01:24:17;101636.66;;;10.19;81.85
3132;BME280;62090;52.330;9.104;2023-05-24T01:27:03;101550.38;;;9.64;82.51
3132;BME280;62090;52.330;9.104;2023-05-24T01:29:35;101623.56;;;10.11;82.64
3132;BME280;62090;52.330;9.104;2023-05-24T01:32:06;101637.38;;;10.16;82.73
3132;BME280;62090;52.330;9.104;2023-05-24T01:34:35;101638.72;;;10.08;83.03
3132;BME280;62090;52.330;9.104;2023-05-24T01:37:05;101607.56;;;9.93;83.10
3132;BME280;62090;52.330;9.104;2023-05-24T01:39:35;101628.28;;;10.02;82.89
3132;BME280;62090;52.330;9.104;2023-05-24T01:42:17;101612.88;;;9.99;82.86
3132;BME280;62090;52.330;9.104;2023-05-24T01:44:59;101612.03;;;9.99;83.07
3132;BME280;62090;52.330;9.104;2023-05-24T01:47:39;101643.94;;;10.11;83.56
3132;BME280;62090;52.330;9.104;2023-05-24T01:50:17;101634.69;;;10.13;84.21
3132;BME280;62090;52.330;9.104;2023-05-24T01:52:51;101632.34;;;10.18;83.87
3132;BME280;62090;52.330;9.104;2023-05-24T01:55:23;101586.56;;;9.99;83.52
3132;BME280;62090;52.330;9.104;2023-05-24T01:58:01;101585.00;;;10.02;83.19
3132;BME280;62090;52.330;9.104;2023-05-24T02:00:31;101601.50;;;10.12;83.40
3132;BME280;62090;52.330;9.104;2023-05-24T02:03:02;101625.78;;;10.23;83.50
3132;BME280;62090;52.330;9.104;2023-05-24T02:05:32;101603.25;;;10.13;83.42
3132;BME280;62090;52.330;9.104;2023-05-24T02:08:05;101625.84;;;10.25;83.53
3132;BME280;62090;52.330;9.104;2023-05-24T02:10:35;101624.22;;;10.27;83.22
3132;BME280;62090;52.330;9.104;2023-05-24T02:13:08;101589.34;;;10.05;83.10
3132;BME280;62090;52.330;9.104;2023-05-24T02:15:38;101589.75;;;9.93;83.90
3132;BME280;62090;52.330;9.104;2023-05-24T02:18:11;101628.13;;;10.19;83.95
3132;BME280;62090;52.330;9.104;2023-05-24T02:20:44;101602.94;;;10.05;84.80
3132;BME280;62090;52.330;9.104;2023-05-24T02:23:15;101609.09;;;10.10;84.88
3132;BME280;62090;52.330;9.104;2023-05-24T02:25:45;101615.22;;;10.15;85.54
3132;BME280;62090;52.330;9.104;2023-05-24T02:28:17;101572.22;;;9.80;85.53
3132;BME280;62090;52.330;9.104;2023-05-24T02:30:47;101601.16;;;10.03;86.23
3132;BME280;62090;52.330;9.104;2023-05-24T02:33:17;101619.28;;;10.10;86.60
3132;BME280;62090;52.330;9.104;2023-05-24T02:35:47;101597.59;;;9.99;86.88
3132;BME280;62090;52.330;9.104;2023-05-24T02:38:17;101618.09;;;10.02;87.29
3132;BME280;62090;52.330;9.104;2023-05-24T02:40:47;101624.81;;;10.00;88.06
3132;BME280;62090;52.330;9.104;2023-05-24T02:43:19;101618.22;;;10.05;87.82
3132;BME280;62090;52.330;9.104;2023-05-24T02:45:49;101619.56;;;10.16;87.70
3132;BME280;62090;52.330;9.104;2023-05-24T02:48:19;101604.06;;;10.12;87.31
3132;BME280;62090;52.330;9.104;2023-05-24T02:50:49;101620.69;;;10.23;87.61
3132;BME280;62090;52.330;9.104;2023-05-24T02:53:19;101597.13;;;10.08;87.53
3132;BME280;62090;52.330;9.104;2023-05-24T02:55:49;101614.72;;;10.23;87.98
3132;BME280;62090;52.330;9.104;2023-05-24T02:58:22;101617.50;;;10.29;88.34
3132;BME280;62090;52.330;9.104;2023-05-24T03:00:55;101625.94;;;10.28;88.49
3132;BME280;62090;52.330;9.104;2023-05-24T03:03:25;101624.34;;;10.30;88.23
3132;BME280;62090;52.330;9.104;2023-05-24T03:05:56;101628.50;;;10.28;89.14
3132;BME280;62090;52.330;9.104;2023-05-24T03:08:26;101590.13;;;10.23;88.33
3132;BME280;62090;52.330;9.104;2023-05-24T03:10:55;101625.84;;;10.47;87.81
3132;BME280;62090;52.330;9.104;2023-05-24T03:13:28;101599.97;;;10.36;87.74
3132;BME280;62090;52.330;9.104;2023-05-24T03:15:58;101616.44;;;10.44;87.90
3132;BME280;62090;52.330;9.104;2023-05-24T03:18:28;101624.47;;;10.55;87.84
3132;BME280;62090;52.330;9.104;2023-05-24T03:20:58;101585.59;;;10.38;87.71
3132;BME280;62090;52.330;9.104;2023-05-24T03:23:28;101614.19;;;10.52;87.74
3132;BME280;62090;52.330;9.104;2023-05-24T03:25:58;101622.63;;;10.51;88.14
3132;BME280;62090;52.330;9.104;2023-05-24T03:28:31;101594.03;;;10.36;87.19
3132;BME280;62090;52.330;9.104;2023-05-24T03:31:03;101595.97;;;10.43;87.22
3132;BME280;62090;52.330;9.104;2023-05-24T03:33:33;101599.31;;;10.42;87.17
3132;BME280;62090;52.330;9.104;2023-05-24T03:36:04;101604.16;;;10.56;87.79
3132;BME280;62090;52.330;9.104;2023-05-24T03:38:35;101613.72;;;10.62;86.76
3132;BME280;62090;52.330;9.104;2023-05-24T03:41:05;101547.31;;;10.14;87.38
3132;BME280;62090;52.330;9.104;2023-05-24T03:43:37;101554.53;;;10.25;87.04
3132;BME280;62090;52.330;9.104;2023-05-24T03:46:13;101564.81;;;10.28;87.43
3132;BME280;62090;52.330;9.104;2023-05-24T03:48:43;101612.69;;;10.57;87.28
3132;BME280;62090;52.330;9.104;2023-05-24T03:51:13;101561.13;;;10.20;87.01
3132;BME280;62090;52.330;9.104;2023-05-24T03:53:43;101616.72;;;10.52;88.03
3132;BME280;62090;52.330;9.104;2023-05-24T03:56:14;101599.53;;;10.46;88.06
3132;BME280;62090;52.330;9.104;2023-05-24T03:58:46;101623.03;;;10.62;87.18
3132;BME280;62090;52.330;9.104;2023-05-24T04:01:16;101626.56;;;10.65;86.78
3132;BME280;62090;52.330;9.104;2023-05-24T04:03:59;101610.44;;;10.44;87.97
3132;BME280;62090;52.330;9.104;2023-05-24T04:06:30;101618.34;;;10.50;87.97
3132;BME280;62090;52.330;9.104;2023-05-24T04:09:02;101554.06;;;10.14;87.47
3132;BME280;62090;52.330;9.104;2023-05-24T04:11:33;101629.94;;;10.64;87.96
3132;BME280;62090;52.330;9.104;2023-05-24T04:14:05;101623.09;;;10.63;88.17
3132;BME280;62090;52.330;9.104;2023-05-24T04:16:35;101515.31;;;10.00;88.31
3132;BME280;62090;52.330;9.104;2023-05-24T04:19:07;101621.38;;;10.62;88.31
3132;BME280;62090;52.330;9.104;2023-05-24T04:21:37;101624.97;;;10.67;88.26
3132;BME280;62090;52.330;9.104;2023-05-24T04:24:07;101625.59;;;10.62;88.39
3132;BME280;62090;52.330;9.104;2023-05-24T04:26:37;101583.13;;;10.40;88.32
3132;BME280;62090;52.330;9.104;2023-05-24T04:29:09;101609.78;;;10.70;88.46
3132;BME280;62090;52.330;9.104;2023-05-24T04:31:40;101571.53;;;10.48;88.81
3132;BME280;62090;52.330;9.104;2023-05-24T04:34:11;101577.00;;;10.57;88.47
3132;BME280;62090;52.330;9.104;2023-05-24T04:36:41;101619.56;;;10.82;88.24
3132;BME280;62090;52.330;9.104;2023-05-24T04:39:11;101598.94;;;10.76;88.15
3132;BME280;62090;52.330;9.104;2023-05-24T04:41:41;101617.47;;;10.94;88.56
3132;BME280;62090;52.330;9.104;2023-05-24T04:44:14;101623.16;;;11.11;87.54
3132;BME280;62090;52.330;9.104;2023-05-24T04:46:43;101623.06;;;11.08;88.14
3132;BME280;62090;52.330;9.104;2023-05-24T04:49:13;101609.72;;;11.15;88.54
3132;BME280;62090;52.330;9.104;2023-05-24T04:51:43;101582.47;;;11.14;86.65
3132;BME280;62090;52.330;9.104;2023-05-24T04:54:13;101608.53;;;11.29;86.31
3132;BME280;62090;52.330;9.104;2023-05-24T04:56:44;101572.34;;;11.15;86.68
3132;BME280;62090;52.330;9.104;2023-05-24T04:59:16;101464.22;;;10.63;86.28
3132;BME280;62090;52.330;9.104;2023-05-24T05:01:46;101613.72;;;11.56;86.07
3132;BME280;62090;52.330;9.104;2023-05-24T05:04:16;101611.41;;;11.63;85.33
3132;BME280;62090;52.330;9.104;2023-05-24T05:06:46;101630.00;;;11.83;85.20
3132;BME280;62090;52.330;9.104;2023-05-24T05:09:16;101635.34;;;11.89;84.83
3132;BME280;62090;52.330;9.104;2023-05-24T05:11:46;101581.78;;;11.67;84.26
3132;BME280;62090;52.330;9.104;2023-05-24T05:14:18;101602.16;;;11.91;83.82
3132;BME280;62090;52.330;9.104;2023-05-24T05:16:48;101560.63;;;11.71;83.30
3132;BME280;62090;52.330;9.104;2023-05-24T05:19:18;101631.50;;;12.28;83.11
3132;BME280;62090;52.330;9.104;2023-05-24T05:21:48;101632.28;;;12.26;83.12
3132;BME280;62090;52.330;9.104;2023-05-24T05:24:17;101601.28;;;12.15;82.58
3132;BME280;62090;52.330;9.104;2023-05-24T05:26:47;101632.44;;;12.31;82.10
3132;BME280;62090;52.330;9.104;2023-05-24T05:29:20;101638.50;;;12.34;82.14
3132;BME280;62090;52.330;9.104;2023-05-24T05:31:50;101630.00;;;12.35;81.77
3132;BME280;62090;52.330;9.104;2023-05-24T05:34:20;101640.44;;;12.43;81.96
3132;BME280;62090;52.330;9.104;2023-05-24T05:36:50;101627.72;;;12.44;81.58
3132;BME280;62090;52.330;9.104;2023-05-24T05:39:19;101575.38;;;12.32;81.12
3132;BME280;62090;52.330;9.104;2023-05-24T05:41:49;101634.19;;;12.60;80.30
3132;BME280;62090;52.330;9.104;2023-05-24T05:44:22;101623.88;;;12.57;80.35
3132;BME280;62090;52.330;9.104;2023-05-24T05:46:51;101643.88;;;12.98;79.31
3132;BME280;62090;52.330;9.104;2023-05-24T05:49:21;101632.50;;;12.89;80.19
3132;BME280;62090;52.330;9.104;2023-05-24T05:51:51;101633.94;;;13.09;79.43
3132;BME280;62090;52.330;9.104;2023-05-24T05:54:21;101631.91;;;13.27;79.17
3132;BME280;62090;52.330;9.104;2023-05-24T05:56:51;101631.97;;;13.29;77.91
3132;BME280;62090;52.330;9.104;2023-05-24T05:59:23;101624.09;;;13.21;77.73
3132;BME280;62090;52.330;9.104;2023-05-24T06:01:53;101639.81;;;13.35;78.27
3132;BME280;62090;52.330;9.104;2023-05-24T06:04:23;101609.44;;;13.17;76.89
3132;BME280;62090;52.330;9.104;2023-05-24T06:06:53;101649.34;;;13.40;76.92
3132;BME280;62090;52.330;9.104;2023-05-24T06:09:22;101651.75;;;13.34;78.07
3132;BME280;62090;52.330;9.104;2023-05-24T06:11:52;101648.00;;;13.22;77.18
3132;BME280;62090;52.330;9.104;2023-05-24T06:14:25;101643.94;;;13.30;78.35
3132;BME280;62090;52.330;9.104;2023-05-24T06:16:54;101654.88;;;13.24;78.32
3132;BME280;62090;52.330;9.104;2023-05-24T06:19:26;101656.66;;;13.27;78.85
3132;BME280;62090;52.330;9.104;2023-05-24T06:21:55;101647.84;;;13.17;78.45
3132;BME280;62090;52.330;9.104;2023-05-24T06:24:25;101662.38;;;13.18;79.16
3132;BME280;62090;52.330;9.104;2023-05-24T06:26:55;101654.00;;;13.24;79.41
3132;BME280;62090;52.330;9.104;2023-05-24T06:29:28;101651.00;;;13.38;79.21
3132;BME280;62090;52.330;9.104;2023-05-24T06:31:58;101598.09;;;13.09;78.00
3132;BME280;62090;52.330;9.104;2023-05-24T06:34:28;101670.09;;;13.20;76.86
3132;BME280;62090;52.330;9.104;2023-05-24T06:36:57;101623.91;;;12.87;77.68
3132;BME280;62090;52.330;9.104;2023-05-24T06:39:28;101626.06;;;13.03;77.77
3132;BME280;62090;52.330;9.104;2023-05-24T06:41:58;101661.41;;;13.44;77.95
3132;BME280;62090;52.330;9.104;2023-05-24T06:44:37;101642.13;;;13.57;76.92
3132;BME280;62090;52.330;9.104;2023-05-24T06:47:07;101675.88;;;13.74;76.73
3132;BME280;62090;52.330;9.104;2023-05-24T06:49:37;101627.41;;;13.50;76.86
3132;BME280;62090;52.330;9.104;2023-05-24T06:52:07;101667.50;;;13.81;76.62
3132;BME280;62090;52.330;9.104;2023-05-24T06:54:37;101668.59;;;13.89;76.48
3132;BME280;62090;52.330;9.104;2023-05-24T06:57:07;101653.81;;;14.13;75.29
3132;BME280;62090;52.330;9.104;2023-05-24T06:59:40;101600.94;;;13.82;74.97
3132;BME280;62090;52.330;9.104;2023-05-24T07:02:09;101662.00;;;13.99;75.35
3132;BME280;62090;52.330;9.104;2023-05-24T07:04:39;101656.47;;;13.83;74.88
3132;BME280;62090;52.330;9.104;2023-05-24T07:07:09;101671.75;;;13.80;74.65
3132;BME280;62090;52.330;9.104;2023-05-24T07:09:40;101644.63;;;13.56;75.65
3132;BME280;62090;52.330;9.104;2023-05-24T07:12:10;101633.06;;;13.37;76.12
3132;BME280;62090;52.330;9.104;2023-05-24T07:14:43;101644.31;;;13.43;76.94
3132;BME280;62090;52.330;9.104;2023-05-24T07:17:13;101651.69;;;13.33;78.23
3132;BME280;62090;52.330;9.104;2023-05-24T07:19:43;101649.97;;;13.32;79.20
3132;BME280;62090;52.330;9.104;2023-05-24T07:22:13;101673.78;;;13.29;77.86
3132;BME280;62090;52.330;9.104;2023-05-24T07:24:55;101675.28;;;13.21;77.66
3132;BME280;62090;52.330;9.104;2023-05-24T07:27:28;101507.22;;;12.04;78.37
3132;BME280;62090;52.330;9.104;2023-05-24T07:30:05;101483.38;;;11.76;78.98
3132;BME280;62090;52.330;9.104;2023-05-24T07:32:55;101633.19;;;12.83;79.46
3132;BME280;62090;52.330;9.104;2023-05-24T07:35:26;101688.84;;;13.19;79.18
3132;BME280;62090;52.330;9.104;2023-05-24T07:37:57;101676.72;;;13.13;78.83
3132;BME280;62090;52.330;9.104;2023-05-24T07:40:26;101697.44;;;13.21;79.88
3132;BME280;62090;52.330;9.104;2023-05-24T07:42:57;101676.31;;;12.99;80.23
3132;BME280;62090;52.330;9.104;2023-05-24T07:45:30;101694.91;;;13.22;81.28
3132;BME280;62090;52.330;9.104;2023-05-24T07:48:00;101671.88;;;13.22;81.65
3132;BME280;62090;52.330;9.104;2023-05-24T07:50:30;101687.88;;;13.45;80.47
3132;BME280;62090;52.330;9.104;2023-05-24T07:53:00;101649.06;;;13.30;81.07
3132;BME280;62090;52.330;9.104;2023-05-24T07:55:31;101689.97;;;13.58;82.08
3132;BME280;62090;52.330;9.104;2023-05-24T07:58:01;101635.72;;;13.11;82.30
3132;BME280;62090;52.330;9.104;2023-05-24T08:00:33;101632.31;;;13.11;83.01
3132;BME280;62090;52.330;9.104;2023-05-24T08:03:05;101673.59;;;13.23;82.58
3132;BME280;62090;52.330;9.104;2023-05-24T08:05:35;101705.44;;;13.31;82.08
3132;BME280;62090;52.330;9.104;2023-05-24T08:08:05;101701.22;;;13.05;82.33
3132;BME280;62090;52.330;9.104;2023-05-24T08:10:35;101688.09;;;12.94;83.62
3132;BME280;62090;52.330;9.104;2023-05-24T08:13:05;101712.00;;;13.23;84.42
3132;BME280;62090;52.330;9.104;2023-05-24T08:15:37;101610.09;;;12.53;83.59
3132;BME280;62090;52.330;9.104;2023-05-24T08:18:08;101654.81;;;12.66;82.83
3132;BME280;62090;52.330;9.104;2023-05-24T08:20:38;101714.56;;;12.95;83.75
3132;BME280;62090;52.330;9.104;2023-05-24T08:23:08;101703.88;;;12.81;84.74
3132;BME280;62090;52.330;9.104;2023-05-24T08:25:38;101707.97;;;13.03;86.02
3132;BME280;62090;52.330;9.104;2023-05-24T08:28:08;101681.28;;;12.95;86.01
3132;BME280;62090;52.330;9.104;2023-05-24T08:30:41;101673.97;;;13.07;85.21
3132;BME280;62090;52.330;9.104;2023-05-24T08:33:11;101708.38;;;13.17;85.90
3132;BME280;62090;52.330;9.104;2023-05-24T08:35:41;101717.22;;;13.26;86.55
3132;BME280;62090;52.330;9.104;2023-05-24T08:38:11;101707.06;;;13.29;86.42
3132;BME280;62090;52.330;9.104;2023-05-24T08:40:41;101655.47;;;12.87;85.23
3132;BME280;62090;52.330;9.104;2023-05-24T08:43:11;101686.56;;;13.01;86.23
3132;BME280;62090;52.330;9.104;2023-05-24T08:45:44;101716.00;;;13.14;86.40
3132;BME280;62090;52.330;9.104;2023-05-24T08:48:14;101688.13;;;12.96;88.01
3132;BME280;62090;52.330;9.104;2023-05-24T08:50:45;101689.31;;;13.07;89.12
3132;BME280;62090;52.330;9.104;2023-05-24T08:53:15;101702.69;;;13.25;89.80
3132;BME280;62090;52.330;9.104;2023-05-24T08:55:48;101732.34;;;13.47;90.40
3132;BME280;62090;52.330;9.104;2023-05-24T08:58:19;101726.41;;;13.48;90.21
3132;BME280;62090;52.330;9.104;2023-05-24T09:00:51;101724.94;;;13.58;89.10
3132;BME280;62090;52.330;9.104;2023-05-24T09:03:22;101714.28;;;13.42;88.82
3132;BME280;62090;52.330;9.104;2023-05-24T09:05:52;101694.22;;;13.28;89.37
3132;BME280;62090;52.330;9.104;2023-05-24T09:08:23;101714.44;;;13.48;89.67
3132;BME280;62090;52.330;9.104;2023-05-24T09:10:54;101727.72;;;13.65;89.06
3132;BME280;62090;52.330;9.104;2023-05-24T09:13:25;101722.56;;;13.64;89.89
3132;BME280;62090;52.330;9.104;2023-05-24T09:16:00;101686.56;;;13.59;89.67
3132;BME280;62090;52.330;9.104;2023-05-24T09:18:31;101721.06;;;13.72;89.37
3132;BME280;62090;52.330;9.104;2023-05-24T09:21:02;101730.84;;;13.85;89.46
3132;BME280;62090;52.330;9.104;2023-05-24T09:23:32;101674.31;;;13.47;88.79
3132;BME280;62090;52.330;9.104;2023-05-24T09:26:06;101722.94;;;13.77;88.14
3132;BME280;62090;52.330;9.104;2023-05-24T09:28:36;101732.13;;;13.71;88.03
3132;BME280;62090;52.330;9.104;2023-05-24T09:31:10;101722.16;;;13.50;88.13
3132;BME280;62090;52.330;9.104;2023-05-24T09:33:40;101720.47;;;13.50;89.84
3132;BME280;62090;52.330;9.104;2023-05-24T09:36:10;101703.28;;;13.46;90.23
3132;BME280;62090;52.330;9.104;2023-05-24T09:38:39;101746.72;;;13.73;90.43
3132;BME280;62090;52.330;9.104;2023-05-24T09:41:10;101699.34;;;13.58;90.51
3132;BME280;62090;52.330;9.104;2023-05-24T09:43:47;101715.88;;;13.69;89.85
3132;BME280;62090;52.330;9.104;2023-05-24T09:46:19;101734.63;;;13.68;89.61
3132;BME280;62090;52.330;9.104;2023-05-24T09:48:56;101751.22;;;13.82;90.25
3132;BME280;62090;52.330;9.104;2023-05-24T09:51:29;101738.22;;;13.74;90.88
3132;BME280;62090;52.330;9.104;2023-05-24T09:54:00;101719.53;;;13.78;90.64
3132;BME280;62090;52.330;9.104;2023-05-24T09:56:31;101642.25;;;13.30;89.99
3132;BME280;62090;52.330;9.104;2023-05-24T09:59:05;101570.28;;;12.90;88.98
3132;BME280;62090;52.330;9.104;2023-05-24T10:01:39;101716.16;;;13.79;89.15
3132;BME280;62090;52.330;9.104;2023-05-24T10:04:09;101745.53;;;13.92;88.93
3132;BME280;62090;52.330;9.104;2023-05-24T10:06:41;101748.19;;;13.95;89.70
3132;BME280;62090;52.330;9.104;2023-05-24T10:09:11;101730.25;;;13.64;88.80
3132;BME280;62090;52.330;9.104;2023-05-24T10:11:41;101726.69;;;13.59;90.14
3132;BME280;62090;52.330;9.104;2023-05-24T10:14:11;101752.91;;;13.80;89.28
3132;BME280;62090;52.330;9.104;2023-05-24T10:16:44;101728.81;;;13.75;91.14
3132;BME280;62090;52.330;9.104;2023-05-24T10:19:14;101749.94;;;13.98;90.75
3132;BME280;62090;52.330;9.104;2023-05-24T10:21:44;101746.56;;;13.99;91.20
3132;BME280;62090;52.330;9.104;2023-05-24T10:24:18;101744.88;;;13.99;90.38
3132;BME280;62090;52.330;9.104;2023-05-24T10:26:53;101742.91;;;13.89;91.35
3132;BME280;62090;52.330;9.104;2023-05-24T10:29:32;101705.34;;;13.58;91.99
3132;BME280;62090;52.330;9.104;2023-05-24T10:32:08;101756.69;;;13.94;91.17
3132;BME280;62090;52.330;9.104;2023-05-24T10:34:39;101749.53;;;13.82;90.42
3132;BME280;62090;52.330;9.104;2023-05-24T10:37:10;101770.09;;;13.84;90.34
3132;BME280;62090;52.330;9.104;2023-05-24T10:39:41;101705.84;;;13.46;89.24
3132;BME280;62090;52.330;9.104;2023-05-24T10:42:11;101740.22;;;13.54;89.86
3132;BME280;62090;52.330;9.104;2023-05-24T10:44:43;101736.66;;;13.49;91.01
3132;BME280;62090;52.330;9.104;2023-05-24T10:47:19;101692.44;;;13.25;91.19
3132;BME280;62090;52.330;9.104;2023-05-24T10:49:54;101738.47;;;13.53;92.54
3132;BME280;62090;52.330;9.104;2023-05-24T10:52:32;101769.28;;;13.85;92.96
3132;BME280;62090;52.330;9.104;2023-05-24T10:55:04;101746.81;;;13.76;93.30
3132;BME280;62090;52.330;9.104;2023-05-24T10:57:37;101760.00;;;13.90;92.34
3132;BME280;62090;52.330;9.104;2023-05-24T11:00:25;101721.72;;;13.65;93.67
3132;BME280;62090;52.330;9.104;2023-05-24T11:03:02;101752.72;;;14.05;94.58
3132;BME280;62090;52.330;9.104;2023-05-24T11:05:48;101755.59;;;14.17;93.40
3132;BME280;62090;52.330;9.104;2023-05-24T11:08:23;101762.72;;;14.29;92.73
3132;BME280;62090;52.330;9.104;2023-05-24T11:11:06;101709.00;;;13.99;92.11
3132;BME280;62090;52.330;9.104;2023-05-24T11:13:39;101708.06;;;13.95;93.19
3132;BME280;62090;52.330;9.104;2023-05-24T11:16:32;101751.69;;;14.31;92.31
3132;BME280;62090;52.330;9.104;2023-05-24T11:19:16;101758.16;;;14.49;92.02
3132;BME280;62090;52.330;9.104;2023-05-24T11:21:47;101751.56;;;14.60;91.57
3132;BME280;62090;52.330;9.104;2023-05-24T11:24:19;101735.41;;;14.62;91.53
3132;BME280;62090;52.330;9.104;2023-05-24T11:26:49;101747.31;;;14.96;90.80
3132;BME280;62090;52.330;9.104;2023-05-24T11:29:19;101750.09;;;15.05;89.67
3132;BME280;62090;52.330;9.104;2023-05-24T11:31:50;101733.63;;;14.96;88.86
3132;BME280;62090;52.330;9.104;2023-05-24T11:34:23;101648.66;;;14.46;88.44
3132;BME280;62090;52.330;9.104;2023-05-24T11:36:53;101751.19;;;15.16;89.17
3132;BME280;62090;52.330;9.104;2023-05-24T11:39:28;101751.06;;;15.10;89.40
3132;BME280;62090;52.330;9.104;2023-05-24T11:41:58;101744.03;;;15.03;89.48
3132;BME280;62090;52.330;9.104;2023-05-24T11:44:30;101748.72;;;15.21;90.59
3132;BME280;62090;52.330;9.104;2023-05-24T11:47:01;101702.44;;;15.19;89.83
3132;BME280;62090;52.330;9.104;2023-05-24T11:49:33;101734.06;;;15.56;89.17
3132;BME280;62090;52.330;9.104;2023-05-24T11:52:04;101741.31;;;15.75;87.28
3132;BME280;62090;52.330;9.104;2023-05-24T11:54:34;101691.41;;;15.66;87.00
3132;BME280;62090;52.330;9.104;2023-05-24T11:57:05;101730.56;;;15.97;85.25
3132;BME280;62090;52.330;9.104;2023-05-24T11:59:36;101749.88;;;16.24;84.29
3132;BME280;62090;52.330;9.104;2023-05-24T12:02:06;101744.09;;;16.35;85.47
3132;BME280;62090;52.330;9.104;2023-05-24T12:04:39;101739.09;;;16.43;83.68
3132;BME280;62090;52.330;9.104;2023-05-24T12:07:09;101747.78;;;16.51;83.11
3132;BME280;62090;52.330;9.104;2023-05-24T12:09:40;101744.22;;;16.44;80.06
3132;BME280;62090;52.330;9.104;2023-05-24T12:12:09;101753.09;;;16.59;82.49
3132;BME280;62090;52.330;9.104;2023-05-24T12:14:39;101721.38;;;16.61;81.06
3132;BME280;62090;52.330;9.104;2023-05-24T12:17:15;101735.34;;;16.75;80.97
3132;BME280;62090;52.330;9.104;2023-05-24T12:19:50;101733.97;;;16.97;81.19
3132;BME280;62090;52.330;9.104;2023-05-24T12:22:26;101723.53;;;16.89;77.27
3132;BME280;62090;52.330;9.104;2023-05-24T12:24:57;101733.81;;;16.86;77.32
3132;BME280;62090;52.330;9.104;2023-05-24T12:27:27;101734.63;;;16.85;78.22
3132;BME280;62090;52.330;9.104;2023-05-24T12:30:05;101714.59;;;16.66;76.18
3132;BME280;62090;52.330;9.104;2023-05-24T12:32:36;101737.06;;;16.76;78.68
3132;BME280;62090;52.330;9.104;2023-05-24T12:35:10;101706.94;;;16.71;80.50
3132;BME280;62090;52.330;9.104;2023-05-24T12:37:39;101741.47;;;16.83;80.88
3132;BME280;62090;52.330;9.104;2023-05-24T12:40:16;101743.22;;;16.87;80.92
3132;BME280;62090;52.330;9.104;2023-05-24T12:42:49;101741.50;;;16.85;80.95
3132;BME280;62090;52.330;9.104;2023-05-24T12:45:21;101738.88;;;16.83;80.82
3132;BME280;62090;52.330;9.104;2023-05-24T12:47:52;101732.75;;;16.74;80.09
3132;BME280;62090;52.330;9.104;2023-05-24T12:50:25;101721.38;;;16.61;80.49
3132;BME280;62090;52.330;9.104;2023-05-24T12:52:56;101737.16;;;16.81;80.32
3132;BME280;62090;52.330;9.104;2023-05-24T12:55:27;101707.22;;;16.89;80.07
3132;BME280;62090;52.330;9.104;2023-05-24T12:57:57;101735.81;;;17.09;80.88
3132;BME280;62090;52.330;9.104;2023-05-24T13:00:29;101723.00;;;17.12;80.27
3132;BME280;62090;52.330;9.104;2023-05-24T13:02:58;101664.66;;;16.57;80.43
3132;BME280;62090;52.330;9.104;2023-05-24T13:05:31;101671.63;;;16.59;79.62
3132;BME280;62090;52.330;9.104;2023-05-24T13:08:01;101720.63;;;16.67;79.41
3132;BME280;62090;52.330;9.104;2023-05-24T13:10:31;101735.19;;;16.66;80.26
3132;BME280;62090;52.330;9.104;2023-05-24T13:13:01;101733.09;;;16.45;79.58
3132;BME280;62090;52.330;9.104;2023-05-24T13:15:31;101713.72;;;16.15;80.14
3132;BME280;62090;52.330;9.104;2023-05-24T13:18:01;101745.72;;;16.30;81.16
3132;BME280;62090;52.330;9.104;2023-05-24T13:20:33;101732.75;;;16.24;82.15
3132;BME280;62090;52.330;9.104;2023-05-24T13:23:03;101729.28;;;16.21;82.76